Last 7 Days

Suisun Valley

Hourly Data | America/Los_Angeles
as of 11/27/20 11:35 AM PST
Date & Time Temp (°F) RH (%) Dew Pt (°F) Wind Spd (mph) Wind Dir (°) Wind Gust (mph) Latest Rain (In) Daily Rain (In) Daily Min Temp (°F) Daily Max Temp (°F)
11/27/20 - 1100 56.4 37 30.4 1.2 S | 178 5.8 0.00 0.00 33.1 60.1
11/27/20 - 1000 52.3 45 31.7 1.2 SSE | 152 5.1 0.00 0.00 33.1 59.9
11/27/20 - 0900 43.3 64 31.8 0.1 NNW | 335 2.4 0.00 0.00 33.1 59.9
11/27/20 - 0800 35.5 83 30.7 0.3 NNW | 345 3.8 0.00 0.00 33.1 59.9
11/27/20 - 0700 33.9 86 30.2 0.2 NW | 323 3.1 0.00 0.00 33.1 59.9
11/27/20 - 0600 34.3 85 30.3 0.2 NW | 312 2.7 0.00 0.00 33.6 59.9
11/27/20 - 0500 35.6 80 30.0 0.0 NW | 305 1.1 0.00 0.00 33.7 59.9
11/27/20 - 0400 40.5 64 29.4 0.2 E | 79 3.1 0.00 0.00 37.7 59.9
11/27/20 - 0300 48.4 42 26.2 0.3 SE | 127 3.8 0.00 0.00 43.0 59.9
11/27/20 - 0200 58.8 25 23.4 4.1 NW | 321 13.2 0.00 0.00 55.6 59.9
11/27/20 - 0100 58.8 24 21.6 4.7 NW | 318 12.1 0.00 0.00 57.8 59.8
11/27/20 - 0000 58.9 24 22.6 5.5 NW | 310 14.2 0.00 0.00 37.4 64.8
11/26/20 - 2300 59.7 24 23.0 6.3 NNW | 339 15.2 0.00 0.00 37.4 64.8
11/26/20 - 2200 60.8 22 22.1 10.9 NW | 321 20.5 0.00 0.00 37.4 64.8
11/26/20 - 2100 59.5 25 23.5 8.8 NNW | 332 17.5 0.00 0.00 37.4 64.8
11/26/20 - 2000 59.3 25 23.3 8.5 NW | 325 18.5 0.00 0.00 37.4 64.8
11/26/20 - 1900 60.0 23 21.8 9.1 NW | 312 17.5 0.00 0.00 37.4 64.8
11/26/20 - 1800 60.1 23 21.8 6.9 WNW | 302 17.2 0.00 0.00 37.4 64.8
11/26/20 - 1700 61.4 21 20.8 6.5 NW | 316 15.5 0.00 0.00 37.4 64.8
11/26/20 - 1600 64.1 19 20.9 5.3 WNW | 299 12.8 0.00 0.00 37.4 64.8
11/26/20 - 1500 64.3 19 20.6 9.2 N | 6 20.2 0.00 0.00 37.4 64.7
11/26/20 - 1400 63.9 20 21.6 10.0 NNE | 26 20.5 0.00 0.00 37.4 64.7
11/26/20 - 1300 63.5 22 24.3 9.1 N | 10 19.5 0.00 0.00 37.4 64.0
11/26/20 - 1200 61.9 25 26.1 11.0 NNW | 330 20.5 0.00 0.00 37.4 62.8
11/26/20 - 1100 60.0 29 27.6 10.6 NW | 318 19.2 0.00 0.00 37.4 61.3
11/26/20 - 1000 57.6 32 28.2 10.2 NW | 322 19.5 0.00 0.00 37.4 58.9
11/26/20 - 0900 55.0 36 28.4 9.8 WNW | 296 18.2 0.00 0.00 37.4 56.3
11/26/20 - 0800 52.8 38 28.0 8.7 WNW | 302 17.5 0.00 0.00 37.4 53.8
11/26/20 - 0700 52.1 39 28.0 7.2 NW | 315 15.8 0.00 0.00 37.4 53.6
11/26/20 - 0600 52.6 39 28.1 7.4 NW | 312 15.2 0.00 0.00 37.4 53.6
11/26/20 - 0500 52.6 39 28.5 6.8 NNW | 335 15.2 0.00 0.00 37.4 53.6
11/26/20 - 0400 52.9 40 29.1 8.4 NNW | 338 15.8 0.00 0.00 37.4 53.6
11/26/20 - 0300 53.1 41 30.1 7.8 NNW | 335 16.2 0.00 0.00 37.4 53.6
11/26/20 - 0200 52.7 46 32.5 4.5 NW | 321 13.8 0.00 0.00 37.4 53.3
11/26/20 - 0100 44.5 74 36.3 0.9 W | 260 10.1 0.00 0.00 37.4 51.3
11/26/20 - 0000 38.7 88 35.3 0.0 N | 0 0.0 0.00 0.00 37.1 66.8
11/25/20 - 2300 42.4 78 35.8 0.1 NE | 48 4.4 0.00 0.00 38.3 66.8
11/25/20 - 2200 44.8 76 37.6 1.3 N | 11 5.4 0.00 0.00 38.3 66.8
11/25/20 - 2100 42.6 88 39.2 1.0 NNW | 335 4.4 0.00 0.00 38.3 66.8
11/25/20 - 2000 44.7 84 40.2 1.0 NW | 322 5.8 0.00 0.00 38.3 66.8
11/25/20 - 1900 46.4 83 41.6 0.6 NW | 312 3.4 0.00 0.00 38.3 66.8
11/25/20 - 1800 50.3 76 42.7 0.1 NW | 318 2.4 0.00 0.00 38.3 66.8
11/25/20 - 1700 58.6 53 41.8 0.5 SE | 127 5.1 0.00 0.00 38.3 66.8
11/25/20 - 1600 63.4 45 41.6 2.0 SE | 126 6.4 0.00 0.00 38.3 66.8
11/25/20 - 1500 65.0 43 42.0 3.1 SE | 132 8.8 0.00 0.00 38.3 66.8
11/25/20 - 1400 65.8 41 41.6 2.2 SE | 145 9.5 0.00 0.00 38.3 66.8
11/25/20 - 1300 64.6 46 43.6 2.7 SSE | 162 8.1 0.00 0.00 38.3 66.0
11/25/20 - 1200 63.5 48 43.5 3.3 ESE | 108 9.1 0.00 0.00 38.3 65.5
11/25/20 - 1100 59.8 53 42.6 1.9 N | 357 6.8 0.00 0.00 38.3 60.8
11/25/20 - 1000 57.2 62 44.2 2.8 NNW | 347 8.1 0.00 0.00 38.3 58.6
11/25/20 - 0900 52.5 80 46.3 1.8 N | 352 7.4 0.00 0.00 38.3 55.8
11/25/20 - 0800 45.5 95 44.2 0.8 SSE | 168 5.1 0.00 0.00 38.3 50.0
11/25/20 - 0700 47.4 90 44.5 1.4 ESE | 112 9.5 0.00 0.00 38.3 50.0
11/25/20 - 0600 48.7 90 45.9 2.8 WSW | 256 9.5 0.00 0.00 38.3 50.0
11/25/20 - 0500 44.3 98 43.9 1.1 WSW | 258 4.4 0.00 0.00 38.3 46.8
11/25/20 - 0400 39.4 99 39.2 1.0 WNW | 293 6.1 0.00 0.00 38.3 45.2
11/25/20 - 0300 39.9 98 39.4 0.5 NW | 313 2.7 0.00 0.00 38.8 45.2
11/25/20 - 0200 42.2 98 41.6 0.9 N | 4 5.4 0.00 0.00 40.6 45.2
11/25/20 - 0100 42.7 96 41.6 1.0 W | 266 5.1 0.00 0.00 40.6 45.2
11/25/20 - 0000 46.8 91 44.2 2.0 WSW | 257 11.1 0.00 0.00 35.1 70.5
11/24/20 - 2300 45.0 94 43.2 0.5 WSW | 258 6.1 0.00 0.00 35.1 70.5
11/24/20 - 2200 48.4 91 46.0 1.3 SSW | 213 6.8 0.00 0.00 35.1 70.5
11/24/20 - 2100 44.4 94 42.8 0.8 SSW | 195 6.4 0.00 0.00 35.1 70.5
11/24/20 - 2000 48.0 85 43.8 0.2 WNW | 286 4.1 0.00 0.00 35.1 70.5
11/24/20 - 1900 55.1 66 43.9 1.4 SW | 220 7.4 0.00 0.00 35.1 70.5
11/24/20 - 1800 56.5 64 44.5 0.2 SSE | 150 3.8 0.00 0.00 35.1 70.5
11/24/20 - 1700 61.8 54 44.9 0.6 SSE | 163 5.8 0.00 0.00 35.1 70.5
11/24/20 - 1600 66.3 44 43.8 3.8 SSW | 202 10.1 0.00 0.00 35.1 70.5
11/24/20 - 1500 68.3 40 43.4 4.2 SW | 236 11.5 0.00 0.00 35.1 70.5
11/24/20 - 1400 69.2 38 42.4 2.2 S | 174 8.1 0.00 0.00 35.1 70.5
11/24/20 - 1300 67.8 41 43.2 2.7 ESE | 102 7.1 0.00 0.00 35.1 69.4
11/24/20 - 1200 64.9 50 46.0 1.4 E | 98 7.1 0.00 0.00 35.1 66.8
11/24/20 - 1100 59.2 63 46.5 0.5 ESE | 106 4.1 0.00 0.00 35.1 62.0
11/24/20 - 1000 53.9 74 45.8 0.2 ESE | 120 3.4 0.00 0.00 35.1 56.9
11/24/20 - 0900 44.5 96 43.4 0.0 N | 0 0.0 0.00 0.00 35.1 48.9
11/24/20 - 0800 37.5 97 36.8 0.0 N | 0 0.0 0.00 0.00 35.1 42.2
11/24/20 - 0700 35.7 96 34.8 0.0 N | 0 0.0 0.00 0.00 35.1 42.2
11/24/20 - 0600 37.1 96 36.1 0.0 N | 0 0.0 0.00 0.00 35.7 42.2
11/24/20 - 0500 38.3 96 37.3 0.0 WNW | 293 1.1 0.00 0.00 37.4 42.2
11/24/20 - 0400 39.4 96 38.3 0.0 N | 0 0.0 0.00 0.00 38.1 42.2
11/24/20 - 0300 41.0 96 39.9 0.0 NNW | 344 1.1 0.00 0.00 39.5 42.2
11/24/20 - 0200 40.3 96 39.2 0.2 WNW | 302 4.1 0.00 0.00 39.5 42.2
11/24/20 - 0100 41.2 95 39.9 0.0 NW | 311 1.7 0.00 0.00 40.6 42.2
11/24/20 - 0000 42.0 94 40.2 0.0 NNW | 327 2.1 0.00 0.00 37.1 68.0
11/23/20 - 2300 44.6 92 42.4 0.0 NW | 317 1.1 0.00 0.00 37.1 68.0
11/23/20 - 2200 46.5 90 43.7 0.3 NW | 310 4.1 0.00 0.00 37.1 68.0
11/23/20 - 2100 47.0 90 44.3 0.4 WNW | 299 4.1 0.00 0.00 37.1 68.0
11/23/20 - 2000 47.6 89 44.6 0.3 NW | 319 3.4 0.00 0.00 37.1 68.0
11/23/20 - 1900 48.8 85 44.6 0.0 N | 0 0.0 0.00 0.00 37.1 68.0
11/23/20 - 1800 56.0 69 45.8 0.3 SW | 228 3.8 0.00 0.00 37.1 68.0
11/23/20 - 1700 60.7 59 46.6 4.0 WSW | 251 10.5 0.00 0.00 37.1 68.0
11/23/20 - 1600 64.0 50 45.2 5.5 SW | 234 10.8 0.00 0.00 37.1 68.0
11/23/20 - 1500 65.3 47 44.4 5.1 WSW | 241 10.8 0.00 0.00 37.1 68.0
11/23/20 - 1400 66.4 44 43.8 3.0 S | 191 8.1 0.00 0.00 37.1 68.0
11/23/20 - 1300 66.6 45 44.4 2.0 SSE | 154 7.4 0.00 0.00 37.1 68.0
11/23/20 - 1200 63.5 49 44.2 0.7 SE | 131 5.1 0.00 0.00 37.1 65.0
11/23/20 - 1100 58.3 64 46.1 0.3 SSE | 166 4.1 0.00 0.00 37.1 61.5
11/23/20 - 1000 50.0 90 47.0 0.1 NW | 307 2.4 0.00 0.00 37.1 54.8
11/23/20 - 0900 44.7 97 44.0 0.0 N | 352 1.4 0.00 0.00 37.1 46.6
11/23/20 - 0800 40.3 97 39.6 0.2 NNW | 337 2.7 0.00 0.00 37.1 44.9
11/23/20 - 0700 38.0 97 37.2 0.1 NW | 308 2.1 0.00 0.00 37.1 44.9
11/23/20 - 0600 38.0 97 37.2 0.0 N | 0 0.0 0.00 0.00 37.1 44.9
11/23/20 - 0500 39.8 96 38.9 0.1 WNW | 302 2.4 0.00 0.00 38.6 44.9
11/23/20 - 0400 40.0 96 39.0 0.2 WNW | 302 2.4 0.00 0.00 39.5 44.9
11/23/20 - 0300 42.3 96 41.2 0.4 NNW | 336 4.1 0.00 0.00 41.4 44.9
11/23/20 - 0200 42.7 95 41.5 0.2 NNW | 331 3.4 0.00 0.00 42.3 44.9
11/23/20 - 0100 43.8 94 42.4 0.2 NW | 318 3.1 0.00 0.00 42.6 44.9
11/23/20 - 0000 44.9 94 43.1 0.1 NNW | 347 4.1 0.00 0.00 35.8 66.5
11/22/20 - 2300 46.9 91 44.6 0.1 NNW | 332 3.1 0.00 0.00 35.8 66.5
11/22/20 - 2200 48.7 88 45.1 0.0 SSW | 208 2.1 0.00 0.00 35.8 66.5
11/22/20 - 2100 48.7 87 45.0 0.2 NW | 314 4.1 0.00 0.00 35.8 66.5
11/22/20 - 2000 46.7 88 43.5 0.0 S | 170 2.4 0.00 0.00 35.8 66.5
11/22/20 - 1900 48.0 82 42.6 0.2 NE | 43 3.4 0.00 0.00 35.8 66.5
11/22/20 - 1800 55.2 63 42.8 0.8 SW | 214 6.1 0.00 0.00 35.8 66.5
11/22/20 - 1700 58.0 59 44.0 4.5 SW | 225 13.8 0.00 0.00 35.8 66.5
11/22/20 - 1600 60.8 49 41.6 6.4 SW | 226 16.2 0.00 0.00 35.8 66.5
11/22/20 - 1500 62.3 38 36.3 2.3 SSW | 208 7.1 0.00 0.00 35.8 66.5
11/22/20 - 1400 64.7 32 34.4 4.7 SW | 233 9.8 0.00 0.00 35.8 66.5
11/22/20 - 1300 65.2 30 33.3 5.4 SSW | 201 11.1 0.00 0.00 35.8 66.5
11/22/20 - 1200 64.8 37 37.6 1.8 SE | 134 7.1 0.00 0.00 35.8 66.5
11/22/20 - 1100 59.1 43 36.9 0.8 SE | 129 4.8 0.00 0.00 35.8 62.5
11/22/20 - 1000 52.6 53 35.9 0.2 SE | 132 3.1 0.00 0.00 35.8 56.4
11/22/20 - 0900 44.1 73 36.0 0.2 NNW | 339 3.4 0.00 0.00 35.8 48.0
11/22/20 - 0800 38.1 86 34.2 1.4 NW | 311 4.4 0.00 0.00 35.8 42.5
11/22/20 - 0700 36.8 89 33.8 1.6 NW | 312 5.1 0.00 0.00 35.8 42.5
11/22/20 - 0600 37.0 90 34.4 1.1 NW | 315 4.8 0.00 0.00 35.8 42.5
11/22/20 - 0500 36.6 93 34.7 0.0 NW | 313 1.7 0.00 0.00 35.8 42.5
11/22/20 - 0400 36.8 90 34.2 0.0 N | 0 0.0 0.00 0.00 35.8 42.5
11/22/20 - 0300 39.3 88 36.0 0.1 NW | 317 3.4 0.00 0.00 38.3 42.5
11/22/20 - 0200 40.8 86 36.9 1.3 NW | 318 4.8 0.00 0.00 39.9 42.5
11/22/20 - 0100 41.9 85 37.7 1.5 NW | 307 4.8 0.00 0.00 41.3 42.5
11/22/20 - 0000 42.5 85 38.4 1.9 NW | 312 5.4 0.00 0.00 31.0 67.7
11/21/20 - 2300 43.1 85 38.8 1.7 NW | 317 4.4 0.00 0.00 31.0 67.7
11/21/20 - 2200 43.6 84 39.0 1.5 NW | 315 4.4 0.00 0.00 31.0 67.7
11/21/20 - 2100 44.4 82 39.4 1.2 NW | 317 4.1 0.00 0.00 31.0 67.7
11/21/20 - 2000 45.5 82 40.3 1.0 NW | 316 3.4 0.00 0.00 31.0 67.7
11/21/20 - 1900 46.1 85 42.0 0.3 NW | 321 2.4 0.00 0.00 31.0 67.7
11/21/20 - 1800 48.6 81 43.1 0.0 N | 0 0.0 0.00 0.00 31.0 67.7
11/21/20 - 1700 58.2 52 40.3 0.0 SE | 139 2.1 0.00 0.00 31.0 67.7
11/21/20 - 1600 65.7 33 35.6 1.1 SSE | 154 5.1 0.00 0.00 31.0 67.7
11/21/20 - 1500 65.1 33 35.4 1.7 S | 174 5.4 0.00 0.00 31.0 67.7
11/21/20 - 1400 64.2 36 36.6 1.8 SSE | 162 7.1 0.00 0.00 31.0 67.7
11/21/20 - 1300 66.0 34 36.7 1.7 SSE | 147 6.1 0.00 0.00 31.0 67.7
11/21/20 - 1200 62.6 40 37.8 1.7 SSE | 150 6.4 0.00 0.00 31.0 64.4
11/21/20 - 1100 56.2 54 39.8 2.0 SE | 143 6.8 0.00 0.00 31.0 59.4
11/21/20 - 1000 50.9 65 39.6 0.3 SE | 128 3.8 0.00 0.00 31.0 54.0
11/21/20 - 0900 41.0 91 38.5 0.0 N | 0 0.0 0.00 0.00 31.0 45.8
11/21/20 - 0800 34.1 96 33.2 0.0 NW | 310 1.7 0.00 0.00 31.0 38.9
11/21/20 - 0700 32.7 96 31.6 0.0 NW | 317 2.1 0.00 0.00 31.0 38.9
11/21/20 - 0600 32.0 95 30.7 0.0 NNW | 330 1.4 0.00 0.00 31.0 38.9
11/21/20 - 0500 33.0 94 31.4 0.0 NNW | 340 1.4 0.00 0.00 31.5 38.9
11/21/20 - 0400 35.0 93 33.1 0.0 WNW | 289 2.4 0.00 0.00 34.0 38.9
11/21/20 - 0300 35.5 93 33.7 0.2 NW | 325 2.7 0.00 0.00 34.7 38.9
11/21/20 - 0200 36.3 91 33.9 0.3 NW | 325 3.8 0.00 0.00 35.6 38.9
11/21/20 - 0100 38.2 89 35.2 0.8 NW | 319 4.1 0.00 0.00 37.4 38.9
11/21/20 - 0000 39.5 87 36.0 1.3 NW | 326 4.1 0.00 0.00 34.1 71.6
11/20/20 - 2300 41.2 85 36.9 1.2 NW | 326 4.4 0.00 0.00 34.1 71.6
11/20/20 - 2200 42.8 82 37.8 1.7 NW | 312 5.4 0.00 0.00 34.1 71.6
11/20/20 - 2100 43.9 81 38.5 1.6 NW | 316 4.8 0.00 0.00 34.1 71.6
11/20/20 - 2000 45.7 78 39.3 1.1 NW | 316 4.4 0.00 0.00 34.1 71.6
11/20/20 - 1900 47.2 77 40.4 0.7 NW | 319 4.1 0.00 0.00 34.1 71.6
11/20/20 - 1800 50.8 76 43.6 0.2 NW | 324 3.8 0.00 0.00 34.1 71.6
11/20/20 - 1700 60.1 50 41.4 0.2 SSW | 199 3.1 0.00 0.00 34.1 71.6
11/20/20 - 1600 67.0 36 38.8 1.8 SSW | 204 6.1 0.00 0.00 34.1 71.6
11/20/20 - 1500 70.1 29 36.8 1.1 SSE | 160 5.4 0.00 0.00 34.1 71.6
11/20/20 - 1400 68.0 30 35.7 0.7 SSE | 167 4.8 0.00 0.00 34.1 69.2
11/20/20 - 1300 66.2 33 36.2 0.7 SSW | 211 4.4 0.00 0.00 34.1 67.6
11/20/20 - 1200 65.0 35 36.8 1.1 SSE | 153 5.1 0.00 0.00 34.1 66.4
Max 70.1 99 47.0 11.0 - 20.5 0.00 0.00 57.8 71.6
Avg 50.6 67 37.4 2.1 - 6.5 0.00 - - -
Min 32.0 19 20.6 0.0 - 0.0 0.00 0.00 31.0 38.9
Total - - - - - - 0.00 - - -
Tip: Bookmark this page for easy future reference